createdAt,value
2023-04-03T00:02:41.811Z,102756.94
2023-04-03T00:05:27.435Z,102752.69
2023-04-03T00:08:12.886Z,102751.94
2023-04-03T00:10:58.580Z,102758.03
2023-04-03T00:13:44.066Z,102753.75
2023-04-03T00:16:29.738Z,102762.38
2023-04-03T00:19:15.700Z,102754.66
2023-04-03T00:22:00.722Z,102756.44
2023-04-03T00:24:45.849Z,102747.84
2023-04-03T00:27:30.944Z,102746.16
2023-04-03T00:30:19.325Z,102750.50
2023-04-03T00:33:04.622Z,102732.41
2023-04-03T00:35:50.470Z,102742.72
2023-04-03T00:38:35.984Z,102729.88
2023-04-03T00:41:21.127Z,102741.09
2023-04-03T00:44:28.982Z,102745.50
2023-04-03T00:47:17.566Z,102746.41
2023-04-03T00:50:03.280Z,102756.78
2023-04-03T00:52:50.005Z,102742.13
2023-04-03T00:55:37.151Z,102743.03
2023-04-03T00:58:29.324Z,102740.47
2023-04-03T01:01:18.573Z,102743.06
2023-04-03T01:04:05.151Z,102744.78
2023-04-03T01:06:50.466Z,102752.63
2023-04-03T01:09:36.347Z,102753.53
2023-04-03T01:12:25.482Z,102752.69
2023-04-03T01:15:17.314Z,102749.25
2023-04-03T01:18:03.788Z,102747.59
2023-04-03T01:21:04.254Z,102755.38
2023-04-03T01:24:09.331Z,102753.66
2023-04-03T01:26:54.337Z,102745.94
2023-04-03T01:29:41.114Z,102739.00
2023-04-03T01:32:26.358Z,102736.47
2023-04-03T01:35:11.655Z,102739.13
2023-04-03T01:37:56.825Z,102739.13
2023-04-03T01:40:41.749Z,102737.47
2023-04-03T01:43:27.103Z,102735.72
2023-04-03T01:46:12.450Z,102725.44
2023-04-03T01:48:57.568Z,102727.09
2023-04-03T01:51:42.699Z,102719.44
2023-04-03T01:54:27.532Z,102722.03
2023-04-03T01:57:14.052Z,102725.53
2023-04-03T01:59:59.158Z,102728.19
2023-04-03T02:02:44.300Z,102715.22
2023-04-03T02:05:29.598Z,102709.25
2023-04-03T02:08:15.379Z,102717.84
2023-04-03T02:11:00.372Z,102716.16
2023-04-03T02:13:45.443Z,102701.53
2023-04-03T02:16:31.766Z,102711.88
2023-04-03T02:19:17.247Z,102709.22
2023-04-03T02:22:04.182Z,102714.44
2023-04-03T02:24:49.315Z,102712.75
2023-04-03T02:27:34.196Z,102717.94
2023-04-03T02:30:19.225Z,102723.16
2023-04-03T02:33:04.419Z,102717.16
2023-04-03T02:35:54.241Z,102707.69
2023-04-03T02:38:39.596Z,102725.78
2023-04-03T02:41:26.498Z,102724.91
2023-04-03T02:44:12.485Z,102717.19
2023-04-03T02:46:57.322Z,102718.06
2023-04-03T02:49:44.585Z,102709.41
2023-04-03T02:52:29.529Z,102709.41
2023-04-03T02:55:16.931Z,102707.66
2023-04-03T02:58:01.958Z,102711.13
2023-04-03T03:00:47.143Z,102713.75
2023-04-03T03:03:32.117Z,102716.34
2023-04-03T03:06:18.192Z,102706.88
2023-04-03T03:09:04.552Z,102703.47
2023-04-03T03:11:49.469Z,102704.31
2023-04-03T03:14:34.489Z,102693.13
2023-04-03T03:17:19.764Z,102701.75
2023-04-03T03:20:06.820Z,102701.75
2023-04-03T03:22:52.069Z,102681.09
2023-04-03T03:25:41.306Z,102695.72
2023-04-03T03:28:26.637Z,102694.00
2023-04-03T03:31:12.187Z,102692.31
2023-04-03T03:33:57.088Z,102701.78
2023-04-03T03:36:42.268Z,102699.22
2023-04-03T03:39:27.723Z,102700.94
2023-04-03T03:42:13.006Z,102699.22
2023-04-03T03:44:58.192Z,102701.81
2023-04-03T03:47:43.485Z,102699.19
2023-04-03T03:50:28.329Z,102691.50
2023-04-03T03:53:13.187Z,102694.94
2023-04-03T03:55:58.042Z,102707.00
2023-04-03T03:58:43.141Z,102715.63
2023-04-03T04:01:28.405Z,102708.81
2023-04-03T04:04:13.354Z,102692.44
2023-04-03T04:06:58.365Z,102695.88
2023-04-03T04:09:43.525Z,102695.03
2023-04-03T04:12:28.769Z,102695.88
2023-04-03T04:15:13.894Z,102670.00
2023-04-03T04:17:59.180Z,102685.50
2023-04-03T04:20:46.610Z,102689.84
2023-04-03T04:23:31.612Z,102684.66
2023-04-03T04:26:16.885Z,102681.25
2023-04-03T04:29:01.964Z,102694.13
2023-04-03T04:31:47.038Z,102695.00
2023-04-03T04:34:32.419Z,102698.41
2023-04-03T04:37:17.585Z,102686.34
2023-04-03T04:40:02.900Z,102695.84
2023-04-03T04:42:48.197Z,102697.59
2023-04-03T04:45:33.679Z,102694.13
2023-04-03T04:48:18.488Z,102682.91
2023-04-03T04:51:03.994Z,102706.19
2023-04-03T04:53:49.123Z,102671.72
2023-04-03T04:56:34.270Z,102701.03
2023-04-03T04:59:20.661Z,102698.44
2023-04-03T05:02:07.289Z,102700.19
2023-04-03T05:04:53.285Z,102693.28
2023-04-03T05:07:38.534Z,102703.66
2023-04-03T05:10:23.656Z,102696.75
2023-04-03T05:13:08.965Z,102701.06
2023-04-03T05:15:54.124Z,102693.28
2023-04-03T05:18:39.321Z,102695.91
2023-04-03T05:21:25.947Z,102702.78
2023-04-03T05:24:10.957Z,102701.91
2023-04-03T05:26:55.988Z,102698.47
2023-04-03T05:29:45.225Z,102702.78
2023-04-03T05:32:30.504Z,102683.00
2023-04-03T05:35:16.048Z,102692.47
2023-04-03T05:38:01.541Z,102697.63
2023-04-03T05:40:47.276Z,102697.59
2023-04-03T05:43:33.648Z,102700.22
2023-04-03T05:46:20.320Z,102702.78
2023-04-03T05:49:05.924Z,102703.63
2023-04-03T05:51:52.366Z,102713.09
2023-04-03T05:54:37.241Z,102711.38
2023-04-03T05:57:23.179Z,102710.53
2023-04-03T06:00:10.617Z,102710.53
2023-04-03T06:02:56.229Z,102713.97
2023-04-03T06:05:42.605Z,102714.84
2023-04-03T06:08:27.917Z,102709.69
2023-04-03T06:11:13.332Z,102719.16
2023-04-03T06:13:58.558Z,102717.41
2023-04-03T06:16:44.633Z,102726.88
2023-04-03T06:19:30.145Z,102715.69
2023-04-03T06:22:15.559Z,102714.84
2023-04-03T06:25:00.669Z,102715.72
2023-04-03T06:27:46.487Z,102714.00
2023-04-03T06:30:31.389Z,102720.88
2023-04-03T06:33:16.656Z,102721.75
2023-04-03T06:36:06.320Z,102705.38
2023-04-03T06:38:51.724Z,102707.94
2023-04-03T06:41:37.315Z,102724.31
2023-04-03T06:44:22.604Z,102718.28
2023-04-03T06:47:07.635Z,102707.09
2023-04-03T06:49:52.910Z,102729.47
2023-04-03T06:52:38.336Z,102730.31
2023-04-03T06:55:23.744Z,102733.75
2023-04-03T06:58:09.016Z,102743.22
2023-04-03T07:00:54.044Z,102722.53
2023-04-03T07:03:41.140Z,102739.72
2023-04-03T07:06:29.207Z,102736.31
2023-04-03T07:09:15.451Z,102736.31
2023-04-03T07:12:01.061Z,102738.03
2023-04-03T07:14:46.105Z,102731.97
2023-04-03T07:17:31.201Z,102732.75
2023-04-03T07:20:16.268Z,102717.25
2023-04-03T07:23:04.283Z,102736.09
2023-04-03T07:25:50.568Z,102736.94
2023-04-03T07:28:37.529Z,102736.75
2023-04-03T07:31:22.861Z,102736.72
2023-04-03T07:34:07.946Z,102741.03
2023-04-03T07:36:53.277Z,102743.44
2023-04-03T07:39:38.490Z,102742.31
2023-04-03T07:42:23.513Z,102741.22
2023-04-03T07:45:09.171Z,102742.03
2023-04-03T07:47:54.149Z,102739.47
2023-04-03T07:50:41.845Z,102741.78
2023-04-03T07:53:26.785Z,102732.06
2023-04-03T07:56:11.884Z,102733.66
2023-04-03T07:58:56.911Z,102739.63
2023-04-03T08:01:42.378Z,102735.28
2023-04-03T08:04:27.944Z,102742.09
2023-04-03T08:07:12.946Z,102737.69
2023-04-03T08:09:58.273Z,102727.09
2023-04-03T08:12:43.323Z,102738.94
2023-04-03T08:15:28.770Z,102725.81
2023-04-03T08:18:16.207Z,102714.00
2023-04-03T08:21:01.370Z,102741.25
2023-04-03T08:23:49.945Z,102740.06
2023-04-03T08:26:35.901Z,102743.44
2023-04-03T08:29:22.301Z,102749.44
2023-04-03T08:32:07.464Z,102752.66
2023-04-03T08:34:52.727Z,102741.19
2023-04-03T08:37:38.634Z,102759.00
2023-04-03T08:40:24.401Z,102749.97
2023-04-03T08:43:33.689Z,102745.53
2023-04-03T08:46:23.576Z,102741.91
2023-04-03T08:49:17.285Z,102747.13
2023-04-03T08:52:09.549Z,102748.91
2023-04-03T08:55:02.232Z,102747.97
2023-04-03T08:57:49.988Z,102741.06
2023-04-03T09:00:58.198Z,102744.13
2023-04-03T09:03:43.437Z,102744.53
2023-04-03T09:06:36.364Z,102752.09
2023-04-03T09:09:42.697Z,102750.31
2023-04-03T09:12:37.664Z,102732.25
2023-04-03T09:15:37.898Z,102730.38
2023-04-03T09:18:31.688Z,102742.28
2023-04-03T09:21:33.020Z,102747.22
2023-04-03T09:24:18.960Z,102749.41
2023-04-03T09:27:11.099Z,102746.75
2023-04-03T09:29:58.245Z,102747.72
2023-04-03T09:32:48.240Z,102738.94
2023-04-03T09:35:47.488Z,102734.53
2023-04-03T09:38:34.907Z,102746.50
2023-04-03T09:41:20.202Z,102733.53
2023-04-03T09:44:22.193Z,102740.66
2023-04-03T09:47:27.737Z,102730.88
2023-04-03T09:50:15.972Z,102721.91
2023-04-03T09:53:07.070Z,102727.03
2023-04-03T09:55:52.535Z,102723.88
2023-04-03T09:58:50.371Z,102730.63
2023-04-03T10:01:40.110Z,102716.75
2023-04-03T10:04:25.435Z,102731.91
2023-04-03T10:07:36.198Z,102723.81
2023-04-03T10:10:26.877Z,102729.69
2023-04-03T10:13:21.066Z,102729.66
2023-04-03T10:16:15.594Z,102734.94
2023-04-03T10:19:39.300Z,102734.06
2023-04-03T10:22:30.466Z,102744.25
2023-04-03T10:25:39.839Z,102741.63
2023-04-03T10:28:25.058Z,102739.91
2023-04-03T10:31:26.484Z,102740.06
2023-04-03T10:34:30.066Z,102739.03
2023-04-03T10:37:25.239Z,102745.13
2023-04-03T10:40:36.095Z,102741.69
2023-04-03T10:43:37.616Z,102746.94
2023-04-03T10:46:22.764Z,102736.47
2023-04-03T10:49:32.343Z,102732.75
2023-04-03T10:52:47.146Z,102728.41
2023-04-03T10:55:42.946Z,102736.19
2023-04-03T10:58:40.314Z,102722.06
2023-04-03T11:01:36.266Z,102714.81
2023-04-03T11:04:25.239Z,102705.38
2023-04-03T11:07:19.370Z,102727.84
2023-04-03T11:10:14.836Z,102722.84
2023-04-03T11:13:13.307Z,102719.53
2023-04-03T11:15:59.217Z,102706.00
2023-04-03T11:18:51.944Z,102712.00
2023-04-03T11:21:49.958Z,102715.19
2023-04-03T11:24:39.455Z,102702.25
2023-04-03T11:27:25.247Z,102697.34
2023-04-03T11:30:19.550Z,102687.63
2023-04-03T11:33:23.143Z,102687.28
2023-04-03T11:36:25.444Z,102687.56
2023-04-03T11:39:33.106Z,102685.19
2023-04-03T11:42:40.072Z,102684.88
2023-04-03T11:45:28.469Z,102685.25
2023-04-03T11:48:24.965Z,102689.56
2023-04-03T11:51:13.737Z,102678.28
2023-04-03T11:54:45.162Z,102681.22
2023-04-03T11:57:47.012Z,102678.41
2023-04-03T12:00:44.510Z,102676.44
2023-04-03T12:03:32.710Z,102671.00
2023-04-03T12:06:18.051Z,102664.09
2023-04-03T12:09:23.252Z,102660.47
2023-04-03T12:12:40.545Z,102659.03
2023-04-03T12:15:50.230Z,102652.78
2023-04-03T12:18:51.341Z,102656.03
2023-04-03T12:22:03.728Z,102651.00
2023-04-03T12:24:51.666Z,102644.69
2023-04-03T12:27:43.211Z,102655.13
2023-04-03T12:30:31.340Z,102636.78
2023-04-03T12:33:38.420Z,102640.44
2023-04-03T12:37:01.660Z,102636.28
2023-04-03T12:39:56.561Z,102629.31
2023-04-03T12:42:52.283Z,102639.53
2023-04-03T12:46:09.528Z,102629.13
2023-04-03T12:48:57.651Z,102624.38
2023-04-03T12:51:45.728Z,102620.75
2023-04-03T12:54:37.487Z,102627.81
2023-04-03T12:57:26.382Z,102627.69
2023-04-03T13:00:36.395Z,102612.25
2023-04-03T13:03:27.857Z,102620.47
2023-04-03T13:06:25.325Z,102615.44
2023-04-03T13:09:31.280Z,102600.16
2023-04-03T13:12:17.933Z,102606.63
2023-04-03T13:15:21.198Z,102598.19
2023-04-03T13:18:06.650Z,102595.38
2023-04-03T13:20:52.965Z,102599.41
2023-04-03T13:23:41.506Z,102610.28
2023-04-03T13:26:30.278Z,102599.91
2023-04-03T13:29:34.442Z,102592.25
2023-04-03T13:32:25.633Z,102585.88
2023-04-03T13:35:41.592Z,102596.47
2023-04-03T13:38:32.465Z,102580.34
2023-04-03T13:41:32.931Z,102590.50
2023-04-03T13:44:19.176Z,102592.94
2023-04-03T13:47:13.310Z,102584.09
2023-04-03T13:50:13.648Z,102583.72
2023-04-03T13:53:12.345Z,102582.88
2023-04-03T13:56:03.618Z,102586.34
2023-04-03T13:59:01.929Z,102584.38
2023-04-03T14:01:52.671Z,102567.81
2023-04-03T14:04:37.895Z,102572.13
2023-04-03T14:07:23.258Z,102568.16
2023-04-03T14:10:08.734Z,102563.63
2023-04-03T14:12:53.814Z,102569.72
2023-04-03T14:15:39.465Z,102568.50
2023-04-03T14:18:25.030Z,102561.34
2023-04-03T14:21:13.236Z,102558.81
2023-04-03T14:23:58.516Z,102563.38
2023-04-03T14:26:44.787Z,102547.59
2023-04-03T14:29:29.860Z,102563.31
2023-04-03T14:32:17.060Z,102558.06
2023-04-03T14:35:04.259Z,102559.19
2023-04-03T14:37:49.890Z,102546.94
2023-04-03T14:40:35.630Z,102554.94
2023-04-03T14:43:23.165Z,102554.75
2023-04-03T14:46:23.599Z,102550.50
2023-04-03T14:49:19.105Z,102552.78
2023-04-03T14:52:04.737Z,102548.41
2023-04-03T14:54:50.853Z,102546.53
2023-04-03T14:57:36.255Z,102536.63
2023-04-03T15:00:23.162Z,102544.84
2023-04-03T15:03:17.736Z,102530.56
2023-04-03T15:06:03.246Z,102539.88
2023-04-03T15:08:48.870Z,102533.22
2023-04-03T15:11:34.628Z,102537.41
2023-04-03T15:14:30.025Z,102538.72
2023-04-03T15:17:23.716Z,102537.41
2023-04-03T15:20:15.178Z,102535.59
2023-04-03T15:23:02.229Z,102523.38
2023-04-03T15:25:49.682Z,102531.06
2023-04-03T15:28:38.630Z,102528.13
2023-04-03T15:31:24.102Z,102532.59
2023-04-03T15:34:09.141Z,102525.31
2023-04-03T15:36:54.219Z,102523.59
2023-04-03T15:39:39.102Z,102526.56
2023-04-03T15:42:24.043Z,102517.16
2023-04-03T15:45:10.413Z,102519.66
2023-04-03T15:47:55.442Z,102512.94
2023-04-03T15:50:40.945Z,102523.50
2023-04-03T15:53:26.195Z,102508.88
2023-04-03T15:56:12.855Z,102524.47
2023-04-03T15:58:57.742Z,102515.53
2023-04-03T16:01:43.680Z,102511.41
2023-04-03T16:04:28.971Z,102519.66
2023-04-03T16:07:14.392Z,102505.63
2023-04-03T16:09:59.779Z,102510.41
2023-04-03T16:12:45.832Z,102520.00
2023-04-03T16:15:32.114Z,102515.63
2023-04-03T16:18:19.332Z,102500.66
2023-04-03T16:21:04.594Z,102515.28
2023-04-03T16:23:50.367Z,102505.22
2023-04-03T16:26:35.801Z,102526.63
2023-04-03T16:29:21.128Z,102526.16
2023-04-03T16:32:06.414Z,102523.78
2023-04-03T16:34:52.594Z,102521.16
2023-04-03T16:37:39.842Z,102529.16
2023-04-03T16:40:25.399Z,102537.53
2023-04-03T16:43:11.385Z,102535.75
2023-04-03T16:45:56.307Z,102543.50
2023-04-03T16:48:41.485Z,102541.38
2023-04-03T16:51:26.450Z,102527.13
2023-04-03T16:54:14.439Z,102510.56
2023-04-03T16:56:59.673Z,102533.13
2023-04-03T16:59:44.757Z,102538.84
2023-04-03T17:02:30.308Z,102508.00
2023-04-03T17:05:15.495Z,102526.88
2023-04-03T17:08:01.986Z,102528.25
2023-04-03T17:10:48.743Z,102516.72
2023-04-03T17:13:35.434Z,102518.31
2023-04-03T17:16:21.735Z,102501.47
2023-04-03T17:19:07.366Z,102510.91
2023-04-03T17:21:52.896Z,102518.19
2023-04-03T17:24:38.211Z,102521.97
2023-04-03T17:27:23.816Z,102525.22
2023-04-03T17:30:09.398Z,102521.59
2023-04-03T17:32:54.491Z,102531.53
2023-04-03T17:35:39.736Z,102528.16
2023-04-03T17:38:25.240Z,102529.38
2023-04-03T17:41:10.579Z,102527.84
2023-04-03T17:43:56.956Z,102524.47
2023-04-03T17:46:42.081Z,102528.19
2023-04-03T17:49:27.241Z,102534.38
2023-04-03T17:52:12.269Z,102540.84
2023-04-03T17:54:57.670Z,102536.84
2023-04-03T17:57:43.970Z,102537.38
2023-04-03T18:00:28.916Z,102536.75
2023-04-03T18:03:13.915Z,102529.38
2023-04-03T18:06:03.307Z,102544.06
2023-04-03T18:08:51.328Z,102545.94
2023-04-03T18:11:36.619Z,102544.41
2023-04-03T18:14:25.644Z,102543.78
2023-04-03T18:17:11.311Z,102551.63
2023-04-03T18:19:56.608Z,102565.63
2023-04-03T18:22:42.399Z,102557.25
2023-04-03T18:25:27.486Z,102567.25
2023-04-03T18:28:13.268Z,102557.19
2023-04-03T18:31:00.206Z,102554.03
2023-04-03T18:33:45.455Z,102561.94
2023-04-03T18:36:30.607Z,102563.00
2023-04-03T18:39:15.602Z,102571.00
2023-04-03T18:42:06.670Z,102574.47
2023-04-03T18:44:56.839Z,102565.94
2023-04-03T18:47:41.907Z,102560.84
2023-04-03T18:50:26.712Z,102562.59
2023-04-03T18:53:12.077Z,102557.75
2023-04-03T18:55:57.076Z,102550.00
2023-04-03T18:58:42.233Z,102551.91
2023-04-03T19:01:27.976Z,102550.34
2023-04-03T19:04:13.911Z,102546.03
2023-04-03T19:06:59.889Z,102549.41
2023-04-03T19:09:45.406Z,102545.19
2023-04-03T19:12:30.950Z,102555.00
2023-04-03T19:15:19.326Z,102549.88
2023-04-03T19:18:04.875Z,102551.72
2023-04-03T19:20:50.389Z,102566.31
2023-04-03T19:23:36.064Z,102561.78
2023-04-03T19:26:21.546Z,102569.00
2023-04-03T19:29:06.948Z,102577.19
2023-04-03T19:31:52.495Z,102578.53
2023-04-03T19:34:37.630Z,102562.75
2023-04-03T19:37:24.910Z,102573.34
2023-04-03T19:40:10.278Z,102575.28
2023-04-03T19:42:55.573Z,102576.25
2023-04-03T19:45:41.716Z,102577.19
2023-04-03T19:48:27.176Z,102578.25
2023-04-03T19:51:12.705Z,102575.81
2023-04-03T19:53:57.946Z,102582.00
2023-04-03T19:56:43.053Z,102572.47
2023-04-03T19:59:28.305Z,102571.66
2023-04-03T20:02:13.404Z,102578.59
2023-04-03T20:04:58.563Z,102574.50
2023-04-03T20:07:43.411Z,102570.13
2023-04-03T20:10:28.340Z,102571.91
2023-04-03T20:13:13.921Z,102574.59
2023-04-03T20:16:04.810Z,102567.69
2023-04-03T20:18:52.273Z,102566.78
2023-04-03T20:21:37.520Z,102553.88
2023-04-03T20:24:22.700Z,102562.50
2023-04-03T20:27:07.700Z,102565.09
2023-04-03T20:29:52.955Z,102559.09
2023-04-03T20:32:37.965Z,102558.41
2023-04-03T20:35:23.289Z,102547.28
2023-04-03T20:38:08.720Z,102544.69
2023-04-03T20:40:54.101Z,102544.91
2023-04-03T20:43:40.198Z,102537.09
2023-04-03T20:46:38.242Z,102543.16
2023-04-03T20:49:33.879Z,102550.09
2023-04-03T20:52:18.856Z,102542.31
2023-04-03T20:55:04.927Z,102541.59
2023-04-03T20:57:54.560Z,102552.06
2023-04-03T21:00:41.130Z,102553.88
2023-04-03T21:03:29.374Z,102554.84
2023-04-03T21:06:52.416Z,102560.09
2023-04-03T21:10:15.746Z,102564.69
2023-04-03T21:13:38.509Z,102556.94
2023-04-03T21:16:23.358Z,102558.78
2023-04-03T21:19:15.773Z,102564.91
2023-04-03T21:22:01.539Z,102571.09
2023-04-03T21:24:46.454Z,102571.16
2023-04-03T21:27:32.077Z,102560.09
2023-04-03T21:30:17.740Z,102569.66
2023-04-03T21:33:03.142Z,102556.66
2023-04-03T21:35:48.672Z,102559.25
2023-04-03T21:38:36.118Z,102554.91
2023-04-03T21:41:22.010Z,102558.38
2023-04-03T21:44:07.730Z,102556.72
2023-04-03T21:46:55.827Z,102547.97
2023-04-03T21:49:41.573Z,102555.03
2023-04-03T21:52:27.473Z,102548.41
2023-04-03T21:55:12.574Z,102558.81
2023-04-03T21:57:58.170Z,102558.13
2023-04-03T22:00:43.339Z,102569.31
2023-04-03T22:03:28.718Z,102571.03
2023-04-03T22:06:16.275Z,102574.50
2023-04-03T22:09:01.473Z,102571.06
2023-04-03T22:11:46.762Z,102575.41
2023-04-03T22:14:32.021Z,102562.41
2023-04-03T22:17:17.055Z,102568.47
2023-04-03T22:20:01.938Z,102544.50
2023-04-03T22:22:50.616Z,102573.75
2023-04-03T22:25:36.308Z,102580.69
2023-04-03T22:28:21.812Z,102565.22
2023-04-03T22:31:08.073Z,102569.56
2023-04-03T22:33:54.586Z,102574.66
2023-04-03T22:36:42.921Z,102569.53
2023-04-03T22:39:28.007Z,102567.84
2023-04-03T22:42:12.902Z,102566.16
2023-04-03T22:44:59.271Z,102568.00
2023-04-03T22:47:44.398Z,102569.94
2023-04-03T22:50:30.209Z,102557.97
2023-04-03T22:53:15.989Z,102570.88
2023-04-03T22:56:03.519Z,102584.72
2023-04-03T22:58:48.456Z,102584.75
2023-04-03T23:01:33.529Z,102583.06
2023-04-03T23:04:18.859Z,102586.56
2023-04-03T23:07:03.884Z,102587.47
2023-04-03T23:09:48.785Z,102587.47
2023-04-03T23:12:38.380Z,102586.72
2023-04-03T23:15:23.495Z,102592.75
2023-04-03T23:18:08.780Z,102586.72
2023-04-03T23:20:55.042Z,102568.72
2023-04-03T23:23:40.699Z,102584.28
2023-04-03T23:26:26.415Z,102581.72
2023-04-03T23:29:11.481Z,102571.47
2023-04-03T23:31:56.722Z,102590.50
2023-04-03T23:34:42.102Z,102583.69
2023-04-03T23:37:27.369Z,102570.88
2023-04-03T23:40:12.712Z,102591.56
2023-04-03T23:42:57.684Z,102592.44
2023-04-03T23:45:45.036Z,102589.91
2023-04-03T23:48:30.521Z,102594.31
2023-04-03T23:51:16.212Z,102588.31
2023-04-03T23:54:00.997Z,102590.97
2023-04-03T23:56:46.430Z,102592.72
2023-04-03T23:59:31.286Z,102594.50
